sensor_id;sensor_type;location;lat;lon;timestamp;temperature;humidity
18779;DHT22;9518;51.720;14.384;2023-01-15T00:00:32;7.00;99.90
18779;DHT22;9518;51.720;14.384;2023-01-15T00:02:59;7.00;99.90
18779;DHT22;9518;51.720;14.384;2023-01-15T00:05:28;7.00;99.90
18779;DHT22;9518;51.720;14.384;2023-01-15T00:07:55;7.10;99.90
18779;DHT22;9518;51.720;14.384;2023-01-15T00:10:22;7.10;99.90
18779;DHT22;9518;51.720;14.384;2023-01-15T00:12:50;7.10;99.90
18779;DHT22;9518;51.720;14.384;2023-01-15T00:15:17;7.10;99.90
18779;DHT22;9518;51.720;14.384;2023-01-15T00:17:44;7.10;99.90
18779;DHT22;9518;51.720;14.384;2023-01-15T00:20:11;7.10;99.90
18779;DHT22;9518;51.720;14.384;2023-01-15T00:22:40;7.10;99.90
18779;DHT22;9518;51.720;14.384;2023-01-15T00:25:08;7.10;99.90
18779;DHT22;9518;51.720;14.384;2023-01-15T00:27:53;7.10;99.90
18779;DHT22;9518;51.720;14.384;2023-01-15T00:30:20;7.10;99.90
18779;DHT22;9518;51.720;14.384;2023-01-15T00:32:48;7.10;99.90
18779;DHT22;9518;51.720;14.384;2023-01-15T00:35:18;7.10;99.90
18779;DHT22;9518;51.720;14.384;2023-01-15T00:37:47;7.00;99.90
18779;DHT22;9518;51.720;14.384;2023-01-15T00:40:17;7.00;99.90
18779;DHT22;9518;51.720;14.384;2023-01-15T00:42:44;7.00;99.90
18779;DHT22;9518;51.720;14.384;2023-01-15T00:45:12;7.00;99.90
18779;DHT22;9518;51.720;14.384;2023-01-15T00:47:42;7.00;99.90
18779;DHT22;9518;51.720;14.384;2023-01-15T00:50:11;7.10;99.90
18779;DHT22;9518;51.720;14.384;2023-01-15T00:52:41;7.10;99.90
18779;DHT22;9518;51.720;14.384;2023-01-15T00:55:10;7.20;99.90
18779;DHT22;9518;51.720;14.384;2023-01-15T00:57:37;7.30;99.90
18779;DHT22;9518;51.720;14.384;2023-01-15T01:00:05;7.40;99.90
18779;DHT22;9518;51.720;14.384;2023-01-15T01:02:32;7.40;99.90
18779;DHT22;9518;51.720;14.384;2023-01-15T01:05:00;7.50;99.90
18779;DHT22;9518;51.720;14.384;2023-01-15T01:07:28;7.60;99.90
18779;DHT22;9518;51.720;14.384;2023-01-15T01:09:55;7.60;99.90
18779;DHT22;9518;51.720;14.384;2023-01-15T01:12:23;7.60;99.90
18779;DHT22;9518;51.720;14.384;2023-01-15T01:14:51;7.60;99.90
18779;DHT22;9518;51.720;14.384;2023-01-15T01:17:18;7.70;99.90
18779;DHT22;9518;51.720;14.384;2023-01-15T01:19:45;7.80;99.90
18779;DHT22;9518;51.720;14.384;2023-01-15T01:22:12;7.90;99.90
18779;DHT22;9518;51.720;14.384;2023-01-15T01:24:39;8.00;99.90
18779;DHT22;9518;51.720;14.384;2023-01-15T01:27:06;8.00;99.90
18779;DHT22;9518;51.720;14.384;2023-01-15T01:29:35;8.10;99.90
18779;DHT22;9518;51.720;14.384;2023-01-15T01:32:03;8.20;99.90
18779;DHT22;9518;51.720;14.384;2023-01-15T01:34:30;8.20;99.90
18779;DHT22;9518;51.720;14.384;2023-01-15T01:36:58;8.20;99.90
18779;DHT22;9518;51.720;14.384;2023-01-15T01:39:25;8.20;99.90
18779;DHT22;9518;51.720;14.384;2023-01-15T01:41:52;8.20;99.90
18779;DHT22;9518;51.720;14.384;2023-01-15T01:44:59;8.20;99.90
18779;DHT22;9518;51.720;14.384;2023-01-15T01:47:27;8.30;99.90
18779;DHT22;9518;51.720;14.384;2023-01-15T01:49:59;8.40;99.90
18779;DHT22;9518;51.720;14.384;2023-01-15T01:52:31;8.40;99.90
18779;DHT22;9518;51.720;14.384;2023-01-15T01:54:59;8.50;99.90
18779;DHT22;9518;51.720;14.384;2023-01-15T01:57:28;8.50;99.90
18779;DHT22;9518;51.720;14.384;2023-01-15T01:59:56;8.40;99.90
18779;DHT22;9518;51.720;14.384;2023-01-15T02:02:25;8.40;99.90
18779;DHT22;9518;51.720;14.384;2023-01-15T02:04:52;8.50;99.90
18779;DHT22;9518;51.720;14.384;2023-01-15T02:07:19;8.60;99.90
18779;DHT22;9518;51.720;14.384;2023-01-15T02:09:46;8.60;99.90
18779;DHT22;9518;51.720;14.384;2023-01-15T02:12:18;8.70;99.90
18779;DHT22;9518;51.720;14.384;2023-01-15T02:14:53;8.60;99.90
18779;DHT22;9518;51.720;14.384;2023-01-15T02:17:30;8.60;99.90
18779;DHT22;9518;51.720;14.384;2023-01-15T02:20:17;8.60;99.90
18779;DHT22;9518;51.720;14.384;2023-01-15T02:22:54;8.60;99.90
18779;DHT22;9518;51.720;14.384;2023-01-15T02:25:27;8.70;99.90
18779;DHT22;9518;51.720;14.384;2023-01-15T02:28:04;8.70;99.90
18779;DHT22;9518;51.720;14.384;2023-01-15T02:30:37;8.70;99.90
18779;DHT22;9518;51.720;14.384;2023-01-15T02:33:10;8.70;99.90
18779;DHT22;9518;51.720;14.384;2023-01-15T02:35:42;8.70;99.90
18779;DHT22;9518;51.720;14.384;2023-01-15T02:38:14;8.80;99.90
18779;DHT22;9518;51.720;14.384;2023-01-15T02:40:42;8.80;99.90
18779;DHT22;9518;51.720;14.384;2023-01-15T02:43:13;8.80;99.90
18779;DHT22;9518;51.720;14.384;2023-01-15T02:45:43;8.60;99.90
18779;DHT22;9518;51.720;14.384;2023-01-15T02:48:12;8.50;99.90
18779;DHT22;9518;51.720;14.384;2023-01-15T02:50:43;8.40;99.90
18779;DHT22;9518;51.720;14.384;2023-01-15T02:53:14;8.20;99.90
18779;DHT22;9518;51.720;14.384;2023-01-15T02:55:46;8.10;99.90
18779;DHT22;9518;51.720;14.384;2023-01-15T02:58:19;8.10;99.90
18779;DHT22;9518;51.720;14.384;2023-01-15T03:00:49;8.00;99.90
18779;DHT22;9518;51.720;14.384;2023-01-15T03:03:22;8.00;99.90
18779;DHT22;9518;51.720;14.384;2023-01-15T03:05:55;7.90;99.90
18779;DHT22;9518;51.720;14.384;2023-01-15T03:08:23;7.90;99.90
18779;DHT22;9518;51.720;14.384;2023-01-15T03:10:59;7.80;99.90
18779;DHT22;9518;51.720;14.384;2023-01-15T03:13:37;7.80;99.90
18779;DHT22;9518;51.720;14.384;2023-01-15T03:16:11;7.80;99.90
18779;DHT22;9518;51.720;14.384;2023-01-15T03:19:01;7.80;99.90
18779;DHT22;9518;51.720;14.384;2023-01-15T03:21:35;7.80;99.90
18779;DHT22;9518;51.720;14.384;2023-01-15T03:24:05;7.80;99.90
18779;DHT22;9518;51.720;14.384;2023-01-15T03:26:33;7.80;99.90
18779;DHT22;9518;51.720;14.384;2023-01-15T03:29:03;7.80;99.90
18779;DHT22;9518;51.720;14.384;2023-01-15T03:31:32;7.80;99.90
18779;DHT22;9518;51.720;14.384;2023-01-15T03:34:00;7.80;99.90
18779;DHT22;9518;51.720;14.384;2023-01-15T03:36:28;7.90;99.90
18779;DHT22;9518;51.720;14.384;2023-01-15T03:38:55;7.90;99.90
18779;DHT22;9518;51.720;14.384;2023-01-15T03:41:25;7.90;99.90
18779;DHT22;9518;51.720;14.384;2023-01-15T03:44:04;7.90;99.90
18779;DHT22;9518;51.720;14.384;2023-01-15T03:46:53;7.90;99.90
18779;DHT22;9518;51.720;14.384;2023-01-15T03:49:29;7.90;99.90
18779;DHT22;9518;51.720;14.384;2023-01-15T03:52:00;8.00;99.90
18779;DHT22;9518;51.720;14.384;2023-01-15T03:54:37;8.00;99.90
18779;DHT22;9518;51.720;14.384;2023-01-15T03:57:07;8.00;99.90
18779;DHT22;9518;51.720;14.384;2023-01-15T03:59:42;8.10;99.90
18779;DHT22;9518;51.720;14.384;2023-01-15T04:02:11;8.10;99.90
18779;DHT22;9518;51.720;14.384;2023-01-15T04:04:39;8.10;99.90
18779;DHT22;9518;51.720;14.384;2023-01-15T04:07:07;8.10;99.90
18779;DHT22;9518;51.720;14.384;2023-01-15T04:09:36;8.00;99.90
18779;DHT22;9518;51.720;14.384;2023-01-15T04:12:05;8.10;99.90
18779;DHT22;9518;51.720;14.384;2023-01-15T04:14:33;8.10;99.90
18779;DHT22;9518;51.720;14.384;2023-01-15T04:17:02;8.10;99.90
18779;DHT22;9518;51.720;14.384;2023-01-15T04:19:29;8.10;99.90
18779;DHT22;9518;51.720;14.384;2023-01-15T04:21:56;8.10;99.90
18779;DHT22;9518;51.720;14.384;2023-01-15T04:24:23;8.20;99.90
18779;DHT22;9518;51.720;14.384;2023-01-15T04:26:51;8.20;99.90
18779;DHT22;9518;51.720;14.384;2023-01-15T04:29:18;8.20;99.90
18779;DHT22;9518;51.720;14.384;2023-01-15T04:31:45;8.20;99.90
18779;DHT22;9518;51.720;14.384;2023-01-15T04:34:13;8.20;99.90
18779;DHT22;9518;51.720;14.384;2023-01-15T04:36:40;8.20;99.90
18779;DHT22;9518;51.720;14.384;2023-01-15T04:39:11;8.20;99.90
18779;DHT22;9518;51.720;14.384;2023-01-15T04:41:38;8.20;99.90
18779;DHT22;9518;51.720;14.384;2023-01-15T04:44:23;8.20;99.90
18779;DHT22;9518;51.720;14.384;2023-01-15T04:46:53;8.20;99.90
18779;DHT22;9518;51.720;14.384;2023-01-15T04:49:21;8.20;99.90
18779;DHT22;9518;51.720;14.384;2023-01-15T04:51:48;8.30;99.90
18779;DHT22;9518;51.720;14.384;2023-01-15T04:54:17;8.30;99.90
18779;DHT22;9518;51.720;14.384;2023-01-15T04:56:45;8.30;99.90
18779;DHT22;9518;51.720;14.384;2023-01-15T04:59:13;8.30;99.90
18779;DHT22;9518;51.720;14.384;2023-01-15T05:01:41;8.30;99.90
18779;DHT22;9518;51.720;14.384;2023-01-15T05:04:08;8.30;99.90
18779;DHT22;9518;51.720;14.384;2023-01-15T05:06:36;8.30;99.90
18779;DHT22;9518;51.720;14.384;2023-01-15T05:09:04;8.30;99.90
18779;DHT22;9518;51.720;14.384;2023-01-15T05:11:34;8.30;99.90
18779;DHT22;9518;51.720;14.384;2023-01-15T05:14:02;8.30;99.90
18779;DHT22;9518;51.720;14.384;2023-01-15T05:16:29;8.30;99.90
18779;DHT22;9518;51.720;14.384;2023-01-15T05:18:58;8.40;99.90
18779;DHT22;9518;51.720;14.384;2023-01-15T05:21:28;8.40;99.90
18779;DHT22;9518;51.720;14.384;2023-01-15T05:23:59;8.40;99.90
18779;DHT22;9518;51.720;14.384;2023-01-15T05:26:27;8.40;99.90
18779;DHT22;9518;51.720;14.384;2023-01-15T05:28:57;8.40;99.90
18779;DHT22;9518;51.720;14.384;2023-01-15T05:31:25;8.40;99.90
18779;DHT22;9518;51.720;14.384;2023-01-15T05:33:53;8.40;99.90
18779;DHT22;9518;51.720;14.384;2023-01-15T05:36:22;8.40;99.90
18779;DHT22;9518;51.720;14.384;2023-01-15T05:38:49;8.40;99.90
18779;DHT22;9518;51.720;14.384;2023-01-15T05:41:21;8.30;99.90
18779;DHT22;9518;51.720;14.384;2023-01-15T05:44:07;8.40;99.90
18779;DHT22;9518;51.720;14.384;2023-01-15T05:46:36;8.40;99.90
18779;DHT22;9518;51.720;14.384;2023-01-15T05:49:06;8.30;99.90
18779;DHT22;9518;51.720;14.384;2023-01-15T05:51:33;8.30;99.90
18779;DHT22;9518;51.720;14.384;2023-01-15T05:54:02;8.30;99.90
18779;DHT22;9518;51.720;14.384;2023-01-15T05:56:30;8.30;99.90
18779;DHT22;9518;51.720;14.384;2023-01-15T05:58:57;8.30;99.90
18779;DHT22;9518;51.720;14.384;2023-01-15T06:01:24;8.30;99.90
18779;DHT22;9518;51.720;14.384;2023-01-15T06:03:51;8.30;99.90
18779;DHT22;9518;51.720;14.384;2023-01-15T06:06:20;8.40;99.90
18779;DHT22;9518;51.720;14.384;2023-01-15T06:08:47;8.30;99.90
18779;DHT22;9518;51.720;14.384;2023-01-15T06:11:14;8.30;99.90
18779;DHT22;9518;51.720;14.384;2023-01-15T06:13:43;8.30;99.90
18779;DHT22;9518;51.720;14.384;2023-01-15T06:16:10;8.30;99.90
18779;DHT22;9518;51.720;14.384;2023-01-15T06:18:38;8.30;99.90
18779;DHT22;9518;51.720;14.384;2023-01-15T06:21:06;8.30;99.90
18779;DHT22;9518;51.720;14.384;2023-01-15T06:23:34;8.30;99.90
18779;DHT22;9518;51.720;14.384;2023-01-15T06:26:02;8.30;99.90
18779;DHT22;9518;51.720;14.384;2023-01-15T06:28:30;8.30;99.90
18779;DHT22;9518;51.720;14.384;2023-01-15T06:30:58;8.30;99.90
18779;DHT22;9518;51.720;14.384;2023-01-15T06:33:25;8.40;99.90
18779;DHT22;9518;51.720;14.384;2023-01-15T06:35:52;8.30;99.90
18779;DHT22;9518;51.720;14.384;2023-01-15T06:38:19;8.30;99.90
18779;DHT22;9518;51.720;14.384;2023-01-15T06:40:46;7.40;99.90
18779;DHT22;9518;51.720;14.384;2023-01-15T06:43:13;6.70;99.90
18779;DHT22;9518;51.720;14.384;2023-01-15T06:45:59;6.40;99.90
18779;DHT22;9518;51.720;14.384;2023-01-15T06:48:43;6.20;99.90
18779;DHT22;9518;51.720;14.384;2023-01-15T06:51:12;6.10;99.90
18779;DHT22;9518;51.720;14.384;2023-01-15T06:53:43;6.00;99.90
18779;DHT22;9518;51.720;14.384;2023-01-15T06:56:11;5.90;99.90
18779;DHT22;9518;51.720;14.384;2023-01-15T06:58:39;5.80;99.90
18779;DHT22;9518;51.720;14.384;2023-01-15T07:01:10;5.80;99.90
18779;DHT22;9518;51.720;14.384;2023-01-15T07:03:37;5.70;99.90
18779;DHT22;9518;51.720;14.384;2023-01-15T07:06:05;5.70;99.90
18779;DHT22;9518;51.720;14.384;2023-01-15T07:08:32;5.60;99.90
18779;DHT22;9518;51.720;14.384;2023-01-15T07:11:02;5.60;99.90
18779;DHT22;9518;51.720;14.384;2023-01-15T07:13:30;5.50;99.90
18779;DHT22;9518;51.720;14.384;2023-01-15T07:15:58;5.40;99.90
18779;DHT22;9518;51.720;14.384;2023-01-15T07:18:28;5.40;99.90
18779;DHT22;9518;51.720;14.384;2023-01-15T07:20:55;5.30;99.90
18779;DHT22;9518;51.720;14.384;2023-01-15T07:23:23;5.20;99.90
18779;DHT22;9518;51.720;14.384;2023-01-15T07:25:51;5.20;99.90
18779;DHT22;9518;51.720;14.384;2023-01-15T07:28:19;5.10;99.90
18779;DHT22;9518;51.720;14.384;2023-01-15T07:30:46;5.10;99.90
18779;DHT22;9518;51.720;14.384;2023-01-15T07:33:14;5.00;99.90
18779;DHT22;9518;51.720;14.384;2023-01-15T07:35:42;5.00;99.90
18779;DHT22;9518;51.720;14.384;2023-01-15T07:38:09;4.90;99.90
18779;DHT22;9518;51.720;14.384;2023-01-15T07:40:36;4.80;99.90
18779;DHT22;9518;51.720;14.384;2023-01-15T07:43:03;4.90;99.90
18779;DHT22;9518;51.720;14.384;2023-01-15T07:45:50;4.80;99.90
18779;DHT22;9518;51.720;14.384;2023-01-15T07:48:49;4.80;99.90
18779;DHT22;9518;51.720;14.384;2023-01-15T07:51:40;4.80;99.90
18779;DHT22;9518;51.720;14.384;2023-01-15T07:54:07;4.80;99.90
18779;DHT22;9518;51.720;14.384;2023-01-15T07:56:34;4.80;99.90
18779;DHT22;9518;51.720;14.384;2023-01-15T07:59:02;4.80;99.90
18779;DHT22;9518;51.720;14.384;2023-01-15T08:01:29;4.80;99.90
18779;DHT22;9518;51.720;14.384;2023-01-15T08:03:56;4.90;99.90
18779;DHT22;9518;51.720;14.384;2023-01-15T08:06:23;4.90;99.90
18779;DHT22;9518;51.720;14.384;2023-01-15T08:08:51;4.90;99.90
18779;DHT22;9518;51.720;14.384;2023-01-15T08:11:19;4.90;99.90
18779;DHT22;9518;51.720;14.384;2023-01-15T08:14:03;5.00;99.90
18779;DHT22;9518;51.720;14.384;2023-01-15T08:16:48;4.90;99.90
18779;DHT22;9518;51.720;14.384;2023-01-15T08:19:15;4.90;99.90
18779;DHT22;9518;51.720;14.384;2023-01-15T08:21:42;4.90;99.90
18779;DHT22;9518;51.720;14.384;2023-01-15T08:24:10;4.90;99.90
18779;DHT22;9518;51.720;14.384;2023-01-15T08:26:37;5.00;99.90
18779;DHT22;9518;51.720;14.384;2023-01-15T08:29:04;4.90;99.90
18779;DHT22;9518;51.720;14.384;2023-01-15T08:31:31;5.00;99.90
18779;DHT22;9518;51.720;14.384;2023-01-15T08:33:58;5.00;99.90
18779;DHT22;9518;51.720;14.384;2023-01-15T08:36:25;5.00;99.90
18779;DHT22;9518;51.720;14.384;2023-01-15T08:38:52;5.00;99.90
18779;DHT22;9518;51.720;14.384;2023-01-15T08:41:21;5.00;99.90
18779;DHT22;9518;51.720;14.384;2023-01-15T08:43:48;5.00;99.90
18779;DHT22;9518;51.720;14.384;2023-01-15T08:46:15;5.00;99.90
18779;DHT22;9518;51.720;14.384;2023-01-15T08:48:42;5.00;99.90
18779;DHT22;9518;51.720;14.384;2023-01-15T08:51:11;4.90;99.90
18779;DHT22;9518;51.720;14.384;2023-01-15T08:53:38;5.00;99.90
18779;DHT22;9518;51.720;14.384;2023-01-15T08:56:11;4.90;99.90
18779;DHT22;9518;51.720;14.384;2023-01-15T08:58:40;5.00;99.90
18779;DHT22;9518;51.720;14.384;2023-01-15T09:01:09;5.00;99.90
18779;DHT22;9518;51.720;14.384;2023-01-15T09:03:37;5.10;99.90
18779;DHT22;9518;51.720;14.384;2023-01-15T09:06:04;5.10;99.90
18779;DHT22;9518;51.720;14.384;2023-01-15T09:08:31;5.10;99.90
18779;DHT22;9518;51.720;14.384;2023-01-15T09:10:58;5.10;99.90
18779;DHT22;9518;51.720;14.384;2023-01-15T09:13:26;5.10;99.90
18779;DHT22;9518;51.720;14.384;2023-01-15T09:15:58;5.10;99.90
18779;DHT22;9518;51.720;14.384;2023-01-15T09:18:25;5.10;99.90
18779;DHT22;9518;51.720;14.384;2023-01-15T09:20:52;5.10;99.90
18779;DHT22;9518;51.720;14.384;2023-01-15T09:23:19;5.10;99.90
18779;DHT22;9518;51.720;14.384;2023-01-15T09:25:51;5.00;99.90
18779;DHT22;9518;51.720;14.384;2023-01-15T09:28:18;4.90;99.90
18779;DHT22;9518;51.720;14.384;2023-01-15T09:30:46;4.90;99.90
18779;DHT22;9518;51.720;14.384;2023-01-15T09:33:14;5.00;99.90
18779;DHT22;9518;51.720;14.384;2023-01-15T09:35:41;5.00;99.90
18779;DHT22;9518;51.720;14.384;2023-01-15T09:38:10;5.00;99.90
18779;DHT22;9518;51.720;14.384;2023-01-15T09:40:48;5.00;99.90
18779;DHT22;9518;51.720;14.384;2023-01-15T09:43:26;5.00;99.90
18779;DHT22;9518;51.720;14.384;2023-01-15T09:45:58;5.00;99.90
18779;DHT22;9518;51.720;14.384;2023-01-15T09:48:45;5.10;99.90
18779;DHT22;9518;51.720;14.384;2023-01-15T09:51:20;5.10;99.90
18779;DHT22;9518;51.720;14.384;2023-01-15T09:54:18;5.10;99.90
18779;DHT22;9518;51.720;14.384;2023-01-15T09:56:47;5.10;99.90
18779;DHT22;9518;51.720;14.384;2023-01-15T09:59:31;5.10;99.90
18779;DHT22;9518;51.720;14.384;2023-01-15T10:02:00;5.20;99.90
18779;DHT22;9518;51.720;14.384;2023-01-15T10:04:34;5.20;99.90
18779;DHT22;9518;51.720;14.384;2023-01-15T10:07:07;5.20;99.90
18779;DHT22;9518;51.720;14.384;2023-01-15T10:09:38;5.10;99.90
18779;DHT22;9518;51.720;14.384;2023-01-15T10:12:14;5.10;99.90
18779;DHT22;9518;51.720;14.384;2023-01-15T10:15:04;5.10;99.90
18779;DHT22;9518;51.720;14.384;2023-01-15T10:17:38;5.10;99.90
18779;DHT22;9518;51.720;14.384;2023-01-15T10:20:14;5.10;99.90
18779;DHT22;9518;51.720;14.384;2023-01-15T10:22:56;5.10;99.90
18779;DHT22;9518;51.720;14.384;2023-01-15T10:25:29;5.10;99.90
18779;DHT22;9518;51.720;14.384;2023-01-15T10:28:02;5.20;99.90
18779;DHT22;9518;51.720;14.384;2023-01-15T10:30:38;5.20;99.90
18779;DHT22;9518;51.720;14.384;2023-01-15T10:33:32;5.30;99.90
18779;DHT22;9518;51.720;14.384;2023-01-15T10:36:08;5.40;99.90
18779;DHT22;9518;51.720;14.384;2023-01-15T10:38:43;5.40;99.90
18779;DHT22;9518;51.720;14.384;2023-01-15T10:44:15;5.40;99.90
18779;DHT22;9518;51.720;14.384;2023-01-15T10:46:49;5.40;99.90
18779;DHT22;9518;51.720;14.384;2023-01-15T10:49:18;5.50;99.90
18779;DHT22;9518;51.720;14.384;2023-01-15T10:51:49;5.40;99.90
18779;DHT22;9518;51.720;14.384;2023-01-15T10:54:23;5.40;99.90
18779;DHT22;9518;51.720;14.384;2023-01-15T10:56:57;5.50;99.90
18779;DHT22;9518;51.720;14.384;2023-01-15T10:59:35;5.50;99.90
18779;DHT22;9518;51.720;14.384;2023-01-15T11:02:24;5.40;99.90
18779;DHT22;9518;51.720;14.384;2023-01-15T11:04:53;5.40;99.90
18779;DHT22;9518;51.720;14.384;2023-01-15T11:07:25;5.40;99.90
18779;DHT22;9518;51.720;14.384;2023-01-15T11:09:53;5.50;99.90
18779;DHT22;9518;51.720;14.384;2023-01-15T11:12:24;5.50;99.90
18779;DHT22;9518;51.720;14.384;2023-01-15T11:15:14;5.50;99.90
18779;DHT22;9518;51.720;14.384;2023-01-15T11:18:01;5.50;99.90
18779;DHT22;9518;51.720;14.384;2023-01-15T11:20:48;5.50;99.90
18779;DHT22;9518;51.720;14.384;2023-01-15T11:23:19;5.60;99.90
18779;DHT22;9518;51.720;14.384;2023-01-15T11:25:51;5.60;99.90
18779;DHT22;9518;51.720;14.384;2023-01-15T11:28:32;5.60;99.90
18779;DHT22;9518;51.720;14.384;2023-01-15T11:31:01;5.50;99.90
18779;DHT22;9518;51.720;14.384;2023-01-15T11:33:28;5.50;99.90
18779;DHT22;9518;51.720;14.384;2023-01-15T11:35:59;5.60;99.90
18779;DHT22;9518;51.720;14.384;2023-01-15T11:38:29;5.60;99.90
18779;DHT22;9518;51.720;14.384;2023-01-15T11:40:58;5.60;99.90
18779;DHT22;9518;51.720;14.384;2023-01-15T11:43:28;5.60;99.90
18779;DHT22;9518;51.720;14.384;2023-01-15T11:46:33;5.60;99.90
18779;DHT22;9518;51.720;14.384;2023-01-15T11:49:20;5.50;99.90
18779;DHT22;9518;51.720;14.384;2023-01-15T11:52:07;5.50;99.90
18779;DHT22;9518;51.720;14.384;2023-01-15T11:54:39;5.60;99.90
18779;DHT22;9518;51.720;14.384;2023-01-15T11:57:07;5.60;99.90
18779;DHT22;9518;51.720;14.384;2023-01-15T11:59:35;5.60;99.90
18779;DHT22;9518;51.720;14.384;2023-01-15T12:02:10;5.60;99.90
18779;DHT22;9518;51.720;14.384;2023-01-15T12:04:48;5.60;99.90
18779;DHT22;9518;51.720;14.384;2023-01-15T12:07:17;5.70;99.90
18779;DHT22;9518;51.720;14.384;2023-01-15T12:10:18;5.70;99.90
18779;DHT22;9518;51.720;14.384;2023-01-15T12:13:14;5.70;99.90
18779;DHT22;9518;51.720;14.384;2023-01-15T12:15:49;5.80;99.90
18779;DHT22;9518;51.720;14.384;2023-01-15T12:18:39;5.80;99.90
18779;DHT22;9518;51.720;14.384;2023-01-15T12:21:20;5.90;99.90
18779;DHT22;9518;51.720;14.384;2023-01-15T12:24:07;5.90;99.90
18779;DHT22;9518;51.720;14.384;2023-01-15T12:26:52;6.00;99.90
18779;DHT22;9518;51.720;14.384;2023-01-15T12:29:25;6.00;99.90
18779;DHT22;9518;51.720;14.384;2023-01-15T12:31:56;6.00;99.90
18779;DHT22;9518;51.720;14.384;2023-01-15T12:34:30;6.10;99.90
18779;DHT22;9518;51.720;14.384;2023-01-15T12:37:04;6.20;99.90
18779;DHT22;9518;51.720;14.384;2023-01-15T12:39:35;6.20;99.90
18779;DHT22;9518;51.720;14.384;2023-01-15T12:42:11;6.20;99.90
18779;DHT22;9518;51.720;14.384;2023-01-15T12:45:01;6.20;99.90
18779;DHT22;9518;51.720;14.384;2023-01-15T12:47:35;6.20;99.90
18779;DHT22;9518;51.720;14.384;2023-01-15T12:50:19;6.20;99.90
18779;DHT22;9518;51.720;14.384;2023-01-15T12:52:52;6.30;99.90
18779;DHT22;9518;51.720;14.384;2023-01-15T12:55:23;6.30;99.90
18779;DHT22;9518;51.720;14.384;2023-01-15T12:57:55;6.40;99.90
18779;DHT22;9518;51.720;14.384;2023-01-15T13:00:30;6.40;99.90
18779;DHT22;9518;51.720;14.384;2023-01-15T13:03:14;6.40;99.90
18779;DHT22;9518;51.720;14.384;2023-01-15T13:05:46;6.40;99.90
18779;DHT22;9518;51.720;14.384;2023-01-15T13:08:20;6.30;99.90
18779;DHT22;9518;51.720;14.384;2023-01-15T13:10:50;6.30;99.90
18779;DHT22;9518;51.720;14.384;2023-01-15T13:13:21;6.30;99.90
18779;DHT22;9518;51.720;14.384;2023-01-15T13:16:02;6.20;99.90
18779;DHT22;9518;51.720;14.384;2023-01-15T13:18:35;6.20;99.90
18779;DHT22;9518;51.720;14.384;2023-01-15T13:21:08;6.20;99.90
18779;DHT22;9518;51.720;14.384;2023-01-15T13:26:52;6.30;99.90
18779;DHT22;9518;51.720;14.384;2023-01-15T13:29:29;6.30;99.90
18779;DHT22;9518;51.720;14.384;2023-01-15T13:32:04;6.40;99.90
18779;DHT22;9518;51.720;14.384;2023-01-15T13:34:39;6.40;99.90
18779;DHT22;9518;51.720;14.384;2023-01-15T13:37:17;6.40;99.90
18779;DHT22;9518;51.720;14.384;2023-01-15T13:39:47;6.40;99.90
18779;DHT22;9518;51.720;14.384;2023-01-15T13:42:18;6.50;99.90
18779;DHT22;9518;51.720;14.384;2023-01-15T13:45:06;6.50;99.90
18779;DHT22;9518;51.720;14.384;2023-01-15T13:47:52;6.60;99.90
18779;DHT22;9518;51.720;14.384;2023-01-15T13:50:27;6.60;99.90
18779;DHT22;9518;51.720;14.384;2023-01-15T13:53:13;6.60;99.90
18779;DHT22;9518;51.720;14.384;2023-01-15T13:55:49;6.60;99.90
18779;DHT22;9518;51.720;14.384;2023-01-15T13:58:24;6.50;99.90
18779;DHT22;9518;51.720;14.384;2023-01-15T14:01:05;6.50;99.90
18779;DHT22;9518;51.720;14.384;2023-01-15T14:03:35;6.50;99.90
18779;DHT22;9518;51.720;14.384;2023-01-15T14:06:05;6.50;99.90
18779;DHT22;9518;51.720;14.384;2023-01-15T14:08:40;6.50;99.90
18779;DHT22;9518;51.720;14.384;2023-01-15T14:11:33;6.50;99.90
18779;DHT22;9518;51.720;14.384;2023-01-15T14:17:11;6.60;99.90
18779;DHT22;9518;51.720;14.384;2023-01-15T14:19:58;6.50;99.90
18779;DHT22;9518;51.720;14.384;2023-01-15T14:22:42;6.30;99.90
18779;DHT22;9518;51.720;14.384;2023-01-15T14:25:29;6.30;99.90
18779;DHT22;9518;51.720;14.384;2023-01-15T14:28:17;6.20;99.90
18779;DHT22;9518;51.720;14.384;2023-01-15T14:31:27;6.20;99.90
18779;DHT22;9518;51.720;14.384;2023-01-15T14:34:11;6.20;99.90
18779;DHT22;9518;51.720;14.384;2023-01-15T14:36:47;6.20;99.90
18779;DHT22;9518;51.720;14.384;2023-01-15T14:39:35;6.30;99.90
18779;DHT22;9518;51.720;14.384;2023-01-15T14:42:07;6.30;99.90
18779;DHT22;9518;51.720;14.384;2023-01-15T14:44:59;6.30;92.40
18779;DHT22;9518;51.720;14.384;2023-01-15T14:47:30;6.20;87.80
18779;DHT22;9518;51.720;14.384;2023-01-15T14:52:44;6.20;82.70
18779;DHT22;9518;51.720;14.384;2023-01-15T14:55:12;6.20;99.90
18779;DHT22;9518;51.720;14.384;2023-01-15T14:57:42;6.20;97.20
18779;DHT22;9518;51.720;14.384;2023-01-15T15:00:16;6.10;93.20
18779;DHT22;9518;51.720;14.384;2023-01-15T15:02:47;6.00;96.80
18779;DHT22;9518;51.720;14.384;2023-01-15T15:05:19;5.90;86.70
18779;DHT22;9518;51.720;14.384;2023-01-15T15:07:50;5.90;78.30
18779;DHT22;9518;51.720;14.384;2023-01-15T15:10:23;5.80;90.40
18779;DHT22;9518;51.720;14.384;2023-01-15T15:12:57;5.80;91.50
18779;DHT22;9518;51.720;14.384;2023-01-15T15:15:36;5.80;99.90
18779;DHT22;9518;51.720;14.384;2023-01-15T15:18:08;5.90;64.50
18779;DHT22;9518;51.720;14.384;2023-01-15T15:20:49;5.70;99.90
18779;DHT22;9518;51.720;14.384;2023-01-15T15:23:21;5.60;95.80
18779;DHT22;9518;51.720;14.384;2023-01-15T15:25:55;5.60;99.90
18779;DHT22;9518;51.720;14.384;2023-01-15T15:28:22;5.50;99.90
18779;DHT22;9518;51.720;14.384;2023-01-15T15:30:50;5.40;99.90
18779;DHT22;9518;51.720;14.384;2023-01-15T15:33:19;5.40;99.90
18779;DHT22;9518;51.720;14.384;2023-01-15T15:35:51;5.40;99.90
18779;DHT22;9518;51.720;14.384;2023-01-15T15:38:21;5.40;99.90
18779;DHT22;9518;51.720;14.384;2023-01-15T15:40:53;5.30;99.90
18779;DHT22;9518;51.720;14.384;2023-01-15T15:43:27;5.30;99.90
18779;DHT22;9518;51.720;14.384;2023-01-15T15:46:30;5.40;99.90
18779;DHT22;9518;51.720;14.384;2023-01-15T15:49:16;5.30;99.90
18779;DHT22;9518;51.720;14.384;2023-01-15T15:51:52;5.40;99.90
18779;DHT22;9518;51.720;14.384;2023-01-15T15:54:20;5.50;97.50
18779;DHT22;9518;51.720;14.384;2023-01-15T15:56:59;5.70;62.20
18779;DHT22;9518;51.720;14.384;2023-01-15T15:59:30;5.80;39.70
18779;DHT22;9518;51.720;14.384;2023-01-15T16:02:09;5.80;77.60
18779;DHT22;9518;51.720;14.384;2023-01-15T16:04:44;5.80;25.30
18779;DHT22;9518;51.720;14.384;2023-01-15T16:07:13;5.80;42.70
18779;DHT22;9518;51.720;14.384;2023-01-15T16:09:47;5.80;49.10
18779;DHT22;9518;51.720;14.384;2023-01-15T16:12:16;5.80;42.20
18779;DHT22;9518;51.720;14.384;2023-01-15T16:14:44;5.80;15.10
18779;DHT22;9518;51.720;14.384;2023-01-15T16:17:13;5.70;45.50
18779;DHT22;9518;51.720;14.384;2023-01-15T16:19:41;5.70;43.50
18779;DHT22;9518;51.720;14.384;2023-01-15T16:22:11;5.50;60.00
18779;DHT22;9518;51.720;14.384;2023-01-15T16:24:52;5.50;75.20
18779;DHT22;9518;51.720;14.384;2023-01-15T16:27:19;5.40;78.00
18779;DHT22;9518;51.720;14.384;2023-01-15T16:29:48;5.30;78.40